Česky Dansk Deutsch English Español Suomi Français Magyar Italiano Nederlands norsk Polski Português svenska Türkçe

 

Het Weer

Zielona Gora (Polen)

18:30, 28 juli 2016 (GMT)

NWNNE
WE
SWSSE
Home            
Zielona Gora Preschen Cottbus Flugplatz Poznan Wroclaw Ii Liberec Berlin-Schoenefeld Dresden-Klotzsche Berlin-Tempelhof Holzdorf Berlin-Tegel Szczecin Praha / Ruzyne Leipzig-Schkeuditz Heringsdorf Altenburg Nobitz Trollenhagen Wittstock Koszalin Karlovy Vary Magdeburg, Sachsen-Anhalt Slupsk Mecklenburg-Vorpommern, Parchim

Om een weerknop op uw website of weblog te plaatsen, copieer onderstaande code en plak die in uw pagina. In het eerste vakje staat HTML-code, in het tweede vakje UBB-code.


Add to Google

Details

Wind speed:1 bf, 2 kn, 1.0 m/s, 2.3 miles/h, 3.7 km/h
Wind direction:N, 350°
Visibility:Greater than 10000 m, 10 km, 32800 ft, 6.2 miles
Clouds:CAVOC
Temperature:23°C, 73°F
Gefühlte Temperatur:24°C, 76°F
Dew-point:16°C, 61°F
Atmospheric pressure:1014 hPa, 760.6 mmHg, 29.94 inHg, 1.001 atm
Relative humidity:64.7 %
METAR:EPZG 281830Z 35002KT CAVOK 23/16 Q1014

Snelkoppelingen

Actuele weersinformatie van de hele wereld. Voeg locaties toe met het plus (+) symbool. Deze snelkoppelingen kunnen worden toegevoegd aan Google.

Lid van de Technetium groep

website free tracking
StatCounter NetStat W3C Validator

13-08-2022 12:21:51
astro.technetium.be money.technetium.be phote.technetium.be tafeltennistafel.technetium.be www.ligfiets.net